Time;durP1;ratioP1;P1;durP2;ratioP2;P2;SDS_P1;SDS_P2;PMS_P1;PMS_P2;Temp;Humidity;BMP_temperature;BMP_pressure;BME280_temperature;BME280_humidity;BME280_pressure;Samples;Min_cycle;Max_cycle;Signal;HPM_P1;HPM_P2
2023/01/24 00:00:32;;;;;;;22.17;17.07;;;;;;;2.56;95.91;102789.28;5018224;28;20303;-82
2023/01/24 00:02:59;;;;;;;23.37;17.63;;;;;;;2.55;95.35;102794.34;5018094;28;20254;-82
2023/01/24 00:05:26;;;;;;;20.57;16.30;;;;;;;2.56;95.83;102798.72;5026512;28;20233;-80
2023/01/24 00:07:52;;;;;;;20.27;16.33;;;;;;;2.52;95.55;102792.53;5037640;28;20221;-82
2023/01/24 00:10:19;;;;;;;22.07;17.17;;;;;;;2.58;95.34;102795.41;5038891;28;20214;-81
2023/01/24 00:12:45;;;;;;;21.57;16.97;;;;;;;2.57;95.34;102803.06;5038341;28;20739;-80
2023/01/24 00:15:12;;;;;;;20.13;15.37;;;;;;;2.56;95.57;102811.63;5039201;28;20230;-81
2023/01/24 00:17:38;;;;;;;23.33;16.40;;;;;;;2.58;95.28;102810.88;5038601;28;20264;-82
2023/01/24 00:20:07;;;;;;;21.10;16.53;;;;;;;2.52;95.42;102813.13;5037348;28;20206;-81
2023/01/24 00:22:33;;;;;;;19.73;16.87;;;;;;;2.51;95.50;102803.63;5038492;28;20281;-81
2023/01/24 00:25:00;;;;;;;22.87;16.83;;;;;;;2.54;95.66;102802.91;5038612;28;20260;-80
2023/01/24 00:27:26;;;;;;;19.77;15.63;;;;;;;2.56;95.53;102796.16;5037581;28;20215;-81
2023/01/24 00:29:53;;;;;;;21.30;14.70;;;;;;;2.54;95.01;102800.34;5037683;28;20321;-81
2023/01/24 00:32:19;;;;;;;20.67;15.90;;;;;;;2.59;95.40;102804.91;5035440;28;20206;-80
2023/01/24 00:34:45;;;;;;;23.20;17.60;;;;;;;2.62;94.95;102803.28;5036932;28;20223;-81
2023/01/24 00:37:13;;;;;;;22.30;16.23;;;;;;;2.54;95.01;102803.78;5038114;28;20272;-80
2023/01/24 00:39:41;;;;;;;21.67;16.50;;;;;;;2.52;94.73;102800.25;5037297;28;20708;-80
2023/01/24 00:42:08;;;;;;;22.97;16.20;;;;;;;2.56;95.56;102791.88;5037889;28;20256;-81
2023/01/24 00:44:34;;;;;;;19.60;16.23;;;;;;;2.56;95.54;102797.03;5037328;28;20198;-81
2023/01/24 00:47:01;;;;;;;19.43;15.93;;;;;;;2.54;94.90;102798.63;5037560;28;20206;-80
2023/01/24 00:49:27;;;;;;;21.23;15.87;;;;;;;2.56;95.62;102791.00;5037524;28;20254;-80
2023/01/24 00:51:54;;;;;;;19.00;15.87;;;;;;;2.50;95.75;102790.69;5037088;28;20696;-81
2023/01/24 00:54:21;;;;;;;19.90;16.13;;;;;;;2.52;95.32;102789.94;5036818;28;20227;-81
2023/01/24 00:56:48;;;;;;;23.23;17.07;;;;;;;2.58;95.58;102792.84;5037510;28;20201;-80
2023/01/24 00:59:14;;;;;;;22.07;15.33;;;;;;;2.62;95.16;102785.25;5036577;28;20230;-80
2023/01/24 01:01:40;;;;;;;17.83;15.33;;;;;;;2.57;94.86;102797.91;5028420;28;20253;-80
2023/01/24 01:04:07;;;;;;;18.73;14.93;;;;;;;2.55;95.39;102799.50;5037307;28;20610;-80
2023/01/24 01:06:34;;;;;;;20.23;15.33;;;;;;;2.61;95.17;102793.78;5037019;28;20206;-81
2023/01/24 01:09:00;;;;;;;22.13;16.47;;;;;;;2.53;95.23;102804.59;5037069;28;20296;-81
2023/01/24 01:11:28;;;;;;;21.20;16.07;;;;;;;2.54;94.80;102805.50;5037801;28;20265;-80
2023/01/24 01:13:55;;;;;;;18.30;14.97;;;;;;;2.53;95.33;102803.72;5036861;28;20241;-81
2023/01/24 01:16:22;;;;;;;19.63;16.00;;;;;;;2.52;94.69;102804.53;5036887;28;20234;-81
2023/01/24 01:18:50;;;;;;;19.00;15.20;;;;;;;2.55;95.07;102802.97;5037200;28;20234;-81
2023/01/24 01:21:19;;;;;;;18.43;14.97;;;;;;;2.54;95.13;102802.91;5036317;28;20253;-81
2023/01/24 01:23:46;;;;;;;18.47;15.30;;;;;;;2.52;95.27;102797.69;5037248;28;20208;-80
2023/01/24 01:26:16;;;;;;;17.63;14.97;;;;;;;2.50;95.37;102799.28;5036383;28;20210;-79
2023/01/24 01:28:43;;;;;;;18.23;14.83;;;;;;;2.51;95.56;102801.03;5029859;28;20307;-80
2023/01/24 01:31:10;;;;;;;16.60;14.30;;;;;;;2.49;95.15;102805.22;5037041;28;20270;-79
2023/01/24 01:33:37;;;;;;;15.23;13.63;;;;;;;2.53;95.42;102798.56;5036267;28;20208;-80
2023/01/24 01:36:04;;;;;;;17.37;14.70;;;;;;;2.55;95.42;102802.97;5036975;28;20230;-80
2023/01/24 01:38:30;;;;;;;18.43;14.33;;;;;;;2.46;95.34;102804.19;5035900;28;20708;-80
2023/01/24 01:40:57;;;;;;;18.13;14.73;;;;;;;2.51;95.10;102795.88;5036137;28;20202;-80
2023/01/24 01:43:26;;;;;;;17.93;13.67;;;;;;;2.53;95.30;102802.00;5036549;28;20240;-81
2023/01/24 01:45:55;;;;;;;18.30;14.50;;;;;;;2.57;94.95;102810.78;5037201;28;20633;-81
2023/01/24 01:48:29;;;;;;;19.17;15.80;;;;;;;2.53;94.60;102816.59;5036012;28;20778;-80
2023/01/24 01:51:00;;;;;;;19.27;14.97;;;;;;;2.46;95.17;102802.50;5036340;28;20263;-80
2023/01/24 01:53:32;;;;;;;18.33;15.10;;;;;;;2.50;94.82;102807.03;5036102;28;20209;-80
2023/01/24 01:56:03;;;;;;;17.63;15.30;;;;;;;2.53;94.82;102812.31;5035835;28;20242;-79
2023/01/24 01:58:29;;;;;;;16.03;13.80;;;;;;;2.55;94.47;102814.97;5030227;28;20255;-80
2023/01/24 02:00:57;;;;;;;18.33;15.27;;;;;;;2.53;94.88;102817.47;5036179;28;20252;-81
2023/01/24 02:03:39;;;;;;;17.27;13.77;;;;;;;2.56;94.61;102821.94;5037043;28;20554;-81
2023/01/24 02:06:10;;;;;;;16.07;14.30;;;;;;;2.51;94.71;102819.09;5035241;28;20206;-82
2023/01/24 02:08:36;;;;;;;17.03;14.27;;;;;;;2.55;94.87;102814.97;5036032;28;20227;-80
2023/01/24 02:13:48;;;;;;;16.13;13.17;;;;;;;2.51;94.74;102821.66;5036795;28;20233;-81
2023/01/24 02:16:16;;;;;;;17.13;14.30;;;;;;;2.54;94.63;102824.41;5035812;28;20295;-81
2023/01/24 02:18:44;;;;;;;16.07;12.87;;;;;;;2.54;94.03;102827.00;5035546;28;20740;-80
2023/01/24 02:21:14;;;;;;;17.80;15.23;;;;;;;2.53;94.36;102832.94;5036854;28;20210;-80
2023/01/24 02:23:50;;;;;;;16.50;14.77;;;;;;;2.65;93.74;102835.28;5035495;28;20297;-80
2023/01/24 02:26:21;;;;;;;17.87;14.13;;;;;;;2.66;93.45;102851.66;5026477;28;20259;-80
2023/01/24 02:28:52;;;;;;;18.50;14.77;;;;;;;2.59;93.31;102850.44;5036979;28;20228;-81
2023/01/24 02:31:19;;;;;;;15.70;13.70;;;;;;;2.52;93.56;102856.09;5036343;28;20264;-80
2023/01/24 02:33:45;;;;;;;16.20;12.83;;;;;;;2.43;93.92;102853.00;5035444;28;20211;-79
2023/01/24 02:36:19;;;;;;;16.13;13.40;;;;;;;2.43;93.89;102848.72;5036483;28;20287;-79
2023/01/24 02:38:51;;;;;;;15.17;13.57;;;;;;;2.50;94.13;102843.13;5037359;28;20369;-79
2023/01/24 02:41:23;;;;;;;17.50;14.40;;;;;;;2.50;93.80;102840.53;5036202;28;20214;-79
2023/01/24 02:43:53;;;;;;;15.40;13.73;;;;;;;2.52;93.50;102843.19;5035057;28;20675;-80
2023/01/24 02:46:19;;;;;;;13.97;12.30;;;;;;;2.56;93.57;102850.28;5016272;28;20253;-81
2023/01/24 02:48:46;;;;;;;15.70;13.87;;;;;;;2.53;93.47;102860.41;5015765;28;20227;-80
2023/01/24 02:53:56;;;;;;;14.60;13.00;;;;;;;2.51;93.11;102852.59;5016243;28;20249;-79
2023/01/24 02:59:08;;;;;;;16.10;13.37;;;;;;;2.55;92.49;102863.97;5000343;28;20350;-80
2023/01/24 03:01:35;;;;;;;13.90;12.43;;;;;;;2.52;92.66;102874.13;4999641;28;20207;-80
2023/01/24 03:04:01;;;;;;;13.33;11.93;;;;;;;2.46;92.81;102859.22;4999564;28;20265;-80
2023/01/24 03:06:28;;;;;;;13.23;11.93;;;;;;;2.47;93.47;102855.81;5015342;28;20206;-80
2023/01/24 03:08:54;;;;;;;13.77;12.30;;;;;;;2.48;93.21;102859.28;5031023;28;20288;-81
2023/01/24 03:11:20;;;;;;;15.93;12.90;;;;;;;2.48;93.15;102851.53;5038846;28;20668;-80
2023/01/24 03:35:53;;;;;;;11.63;10.43;;;;;;;2.42;92.42;102865.03;5032752;28;20249;-80
2023/01/24 03:41:01;;;;;;;12.83;11.60;;;;;;;2.46;92.44;102869.53;5015543;28;20244;-79
2023/01/24 03:43:27;;;;;;;10.80;9.70;;;;;;;2.44;91.91;102877.97;5039686;28;20700;-80
2023/01/24 03:46:00;;;;;;;11.03;9.93;;;;;;;2.47;91.03;102884.19;5038479;28;20199;-79
2023/01/24 03:48:34;;;;;;;11.77;10.57;;;;;;;2.36;90.77;102898.19;5038406;28;20277;-80
2023/01/24 03:53:44;;;;;;;11.13;10.03;;;;;;;2.46;91.12;102894.41;5037093;28;20205;-80
2023/01/24 03:56:11;;;;;;;10.70;9.60;;;;;;;2.46;90.94;102904.72;5032679;28;20221;-79
2023/01/24 03:58:37;;;;;;;11.07;9.97;;;;;;;2.45;90.91;102903.84;5038372;28;20226;-80
2023/01/24 04:01:05;;;;;;;10.60;9.60;;;;;;;2.47;90.61;102904.81;5037782;28;20226;-80
2023/01/24 04:03:32;;;;;;;10.47;9.43;;;;;;;2.52;90.08;102916.25;5037236;28;20652;-80
2023/01/24 04:05:59;;;;;;;11.10;9.93;;;;;;;2.48;90.70;102921.16;5037910;28;20207;-80
2023/01/24 04:08:25;;;;;;;11.03;10.03;;;;;;;2.45;90.31;102931.31;5036979;28;20222;-81
2023/01/24 04:10:52;;;;;;;11.93;10.77;;;;;;;2.45;90.01;102927.03;5037974;28;20556;-81
2023/01/24 04:13:18;;;;;;;10.97;9.87;;;;;;;2.46;90.19;102935.66;5037646;28;20288;-81
2023/01/24 04:15:45;;;;;;;10.93;9.80;;;;;;;2.48;90.19;102926.31;5037318;28;20703;-81
2023/01/24 04:18:13;;;;;;;11.10;9.93;;;;;;;2.52;89.80;102933.44;5030001;28;20285;-82
2023/01/24 04:20:40;;;;;;;10.60;9.13;;;;;;;2.53;89.85;102937.75;5035115;28;20256;-81
2023/01/24 04:23:08;;;;;;;11.70;9.70;;;;;;;2.54;89.78;102945.59;5038142;28;20252;-80
2023/01/24 04:25:34;;;;;;;11.67;9.97;;;;;;;2.44;89.90;102947.56;5037617;28;20543;-80
2023/01/24 04:28:03;;;;;;;12.17;10.87;;;;;;;2.44;90.23;102945.91;5036904;28;20294;-80
2023/01/24 04:30:30;;;;;;;10.27;9.33;;;;;;;2.40;90.06;102936.22;5037638;28;20203;-79
2023/01/24 04:32:56;;;;;;;12.73;9.63;;;;;;;2.39;90.37;102929.28;5037621;28;20742;-80
2023/01/24 04:35:26;;;;;;;9.03;8.23;;;;;;;2.37;90.50;102930.88;5037798;28;20304;-80
2023/01/24 04:37:53;;;;;;;10.00;9.00;;;;;;;2.43;90.01;102926.06;5038083;28;20230;-80
2023/01/24 04:40:19;;;;;;;9.53;8.07;;;;;;;2.42;90.17;102929.47;5030727;28;20264;-80
2023/01/24 04:42:46;;;;;;;11.70;8.23;;;;;;;2.43;89.92;102931.22;5036857;28;20614;-79
2023/01/24 04:45:12;;;;;;;8.73;7.93;;;;;;;2.43;89.65;102927.75;5038014;28;20202;-80
2023/01/24 04:47:39;;;;;;;8.83;8.00;;;;;;;2.44;89.94;102925.28;5032493;28;20206;-80
2023/01/24 04:50:07;;;;;;;9.27;8.37;;;;;;;2.46;89.52;102933.97;5037328;28;20221;-80
2023/01/24 04:52:34;;;;;;;9.67;8.77;;;;;;;2.43;89.34;102953.53;5037666;28;20260;-79
2023/01/24 04:55:01;;;;;;;8.67;7.80;;;;;;;2.45;89.29;102949.34;5037299;28;20210;-81
2023/01/24 04:57:27;;;;;;;10.70;9.70;;;;;;;2.47;89.12;102947.75;5035599;28;20202;-81
2023/01/24 04:59:54;;;;;;;8.80;7.90;;;;;;;2.46;88.80;102952.03;5036756;28;20230;-81
2023/01/24 05:02:20;;;;;;;8.20;7.50;;;;;;;2.42;88.49;102969.78;5038098;28;20202;-81
2023/01/24 05:04:46;;;;;;;9.13;7.83;;;;;;;2.41;88.50;102966.34;5036865;28;20206;-80
2023/01/24 05:07:13;;;;;;;8.60;7.67;;;;;;;2.39;88.88;102966.25;5036610;28;20207;-80
2023/01/24 05:09:41;;;;;;;8.30;7.50;;;;;;;2.43;88.09;102980.19;5036887;28;20276;-80
2023/01/24 05:12:08;;;;;;;8.23;7.47;;;;;;;2.37;88.34;102980.72;5036679;28;20742;-81
2023/01/24 05:14:34;;;;;;;8.13;7.40;;;;;;;2.35;88.98;102982.34;5036954;28;20202;-80
2023/01/24 05:17:01;;;;;;;8.73;7.93;;;;;;;2.45;88.24;102990.59;5033039;28;20360;-80
2023/01/24 05:19:27;;;;;;;8.00;7.30;;;;;;;2.44;88.18;102999.13;5034877;28;20712;-80
2023/01/24 05:21:54;;;;;;;7.57;6.87;;;;;;;2.43;87.38;103005.09;5036950;28;20260;-80
2023/01/24 05:24:20;;;;;;;8.07;7.37;;;;;;;2.42;87.53;103017.09;5037360;28;20680;-80
2023/01/24 05:26:48;;;;;;;7.67;6.87;;;;;;;2.41;87.71;103017.00;5037170;28;20217;-80
2023/01/24 05:29:15;;;;;;;7.47;6.77;;;;;;;2.45;87.50;103017.25;5035943;28;20248;-80
2023/01/24 05:31:41;;;;;;;7.90;7.13;;;;;;;2.44;87.07;103032.63;5034127;28;20207;-81
2023/01/24 05:34:07;;;;;;;7.57;6.87;;;;;;;2.45;87.83;103034.41;5023735;28;20211;-81
2023/01/24 05:36:34;;;;;;;7.93;7.13;;;;;;;2.48;88.16;103029.41;5036143;28;20218;-82
2023/01/24 05:39:01;;;;;;;7.33;6.67;;;;;;;2.48;87.56;103022.59;5036165;28;20226;-81
2023/01/24 05:41:27;;;;;;;10.43;7.47;;;;;;;2.50;87.43;103033.88;5035691;28;20260;-81
2023/01/24 05:43:55;;;;;;;7.63;6.93;;;;;;;2.53;86.54;103035.72;5036895;28;20675;-81
2023/01/24 05:46:23;;;;;;;8.17;7.37;;;;;;;2.48;86.78;103048.38;5035971;28;20286;-80
2023/01/24 05:48:50;;;;;;;8.43;7.70;;;;;;;2.43;87.18;103036.91;5036443;28;20237;-80
2023/01/24 05:51:19;;;;;;;7.57;6.87;;;;;;;2.44;87.39;103036.13;5036679;28;20263;-79
2023/01/24 05:53:45;;;;;;;7.60;6.90;;;;;;;2.46;87.69;103026.78;5035555;28;20269;-80
2023/01/24 05:56:14;;;;;;;7.80;6.97;;;;;;;2.45;87.81;103032.72;5036339;28;20229;-79
2023/01/24 05:58:42;;;;;;;7.33;6.63;;;;;;;2.47;87.18;103030.22;5035969;28;20235;-80
2023/01/24 06:01:11;;;;;;;7.33;6.60;;;;;;;2.46;87.33;103038.75;5036285;28;20206;-80
2023/01/24 06:03:39;;;;;;;7.83;7.13;;;;;;;2.48;86.80;103039.72;5030582;28;20253;-80
2023/01/24 06:06:06;;;;;;;8.20;7.23;;;;;;;2.42;87.07;103050.59;5035930;28;20733;-81
2023/01/24 06:08:32;;;;;;;7.70;7.00;;;;;;;2.45;86.88;103055.03;5036458;28;20226;-80
2023/01/24 06:11:03;;;;;;;8.00;7.30;;;;;;;2.41;87.03;103063.41;5035461;28;20202;-79
2023/01/24 06:13:30;;;;;;;9.07;8.27;;;;;;;2.44;87.06;103060.97;5020011;28;20222;-80
2023/01/24 06:16:01;;;;;;;8.60;7.80;;;;;;;2.42;86.99;103048.03;5013042;28;20600;-80
2023/01/24 06:18:29;;;;;;;8.80;8.00;;;;;;;2.43;87.26;103061.81;5018186;28;20274;-79
2023/01/24 06:20:56;;;;;;;10.97;10.00;;;;;;;2.43;87.19;103065.25;5017435;28;20234;-79
2023/01/24 06:23:25;;;;;;;10.13;9.20;;;;;;;2.45;86.74;103079.13;5009334;28;20619;-79
2023/01/24 06:25:53;;;;;;;8.53;7.83;;;;;;;2.42;87.34;103084.13;5011075;28;20302;-79
2023/01/24 06:28:20;;;;;;;9.57;8.67;;;;;;;2.41;87.82;103068.56;5009610;28;20270;-80
2023/01/24 06:30:57;;;;;;;7.97;7.27;;;;;;;2.37;87.70;103063.22;5006533;28;20207;-80
2023/01/24 06:33:34;;;;;;;8.03;7.33;;;;;;;2.41;87.21;103065.97;5009013;28;20191;-79
2023/01/24 06:36:20;;;;;;;9.13;8.33;;;;;;;2.48;85.98;103083.56;5015262;28;20219;-80
2023/01/24 06:38:47;;;;;;;8.50;7.70;;;;;;;2.48;85.58;103109.34;5021706;28;20219;-79
2023/01/24 06:41:16;;;;;;;10.23;9.33;;;;;;;2.49;85.80;103116.28;5011446;28;20208;-79
2023/01/24 06:43:43;;;;;;;10.03;9.13;;;;;;;2.42;85.90;103121.88;5008885;28;20196;-80
2023/01/24 06:46:10;;;;;;;11.37;10.27;;;;;;;2.39;85.79;103122.59;5009677;28;20715;-81
2023/01/24 06:48:37;;;;;;;9.00;8.30;;;;;;;2.44;86.22;103128.91;5010451;28;20284;-81
2023/01/24 06:51:04;;;;;;;7.70;7.03;;;;;;;2.41;85.42;103131.31;5009467;28;20733;-81
2023/01/24 06:53:32;;;;;;;7.00;6.33;;;;;;;2.35;85.93;103128.38;5012003;28;20199;-80
2023/01/24 06:55:59;;;;;;;8.00;6.73;;;;;;;2.33;85.70;103129.97;5012247;28;20224;-80
2023/01/24 06:58:25;;;;;;;7.10;6.40;;;;;;;2.35;85.23;103133.53;5010139;28;20220;-79
2023/01/24 07:00:52;;;;;;;6.77;6.20;;;;;;;2.42;85.52;103133.09;5010676;28;20203;-81
2023/01/24 07:03:18;;;;;;;6.70;6.00;;;;;;;2.35;85.76;103128.38;5010650;28;20199;-80
2023/01/24 07:05:48;;;;;;;8.37;7.67;;;;;;;2.37;85.71;103129.34;5010949;28;20245;-79
2023/01/24 07:08:14;;;;;;;10.03;9.13;;;;;;;2.33;86.45;103130.84;5009097;28;20218;-79
2023/01/24 07:10:41;;;;;;;9.17;8.37;;;;;;;2.34;86.45;103122.34;5010432;28;20269;-80
2023/01/24 07:13:07;;;;;;;9.40;8.50;;;;;;;2.30;86.30;103115.22;5009040;28;20227;-79
2023/01/24 07:15:34;;;;;;;6.80;6.23;;;;;;;2.34;86.05;103127.50;5007562;28;20247;-78
2023/01/24 07:18:06;;;;;;;11.17;7.40;;;;;;;2.34;85.68;103124.91;5007838;28;20227;-79
2023/01/24 07:20:32;;;;;;;8.37;7.57;;;;;;;2.36;85.84;103135.31;5006800;28;20202;-78
2023/01/24 07:23:01;;;;;;;8.60;7.77;;;;;;;2.33;85.81;103125.69;5014187;28;20198;-80
2023/01/24 07:25:28;;;;;;;9.67;8.20;;;;;;;2.35;85.92;103125.78;5008484;28;20204;-78
2023/01/24 07:27:55;;;;;;;8.40;7.70;;;;;;;2.39;85.84;103138.94;5007556;28;20652;-79
2023/01/24 07:30:22;;;;;;;8.90;8.10;;;;;;;2.35;85.47;103138.69;5007646;28;20208;-78
2023/01/24 07:32:48;;;;;;;9.03;8.23;;;;;;;2.38;85.09;103156.91;5009877;28;20269;-79
2023/01/24 07:35:15;;;;;;;9.17;8.40;;;;;;;2.34;85.84;103162.69;5009766;28;20200;-80
2023/01/24 07:37:41;;;;;;;14.57;13.17;;;;;;;2.41;85.30;103158.78;5008164;28;20223;-81
2023/01/24 07:40:11;;;;;;;10.30;9.40;;;;;;;2.37;85.82;103142.25;5006939;28;20204;-79
2023/01/24 07:42:38;;;;;;;8.97;8.20;;;;;;;2.38;86.21;103138.88;5006853;28;20265;-79
2023/01/24 07:45:05;;;;;;;8.40;7.70;;;;;;;2.46;85.91;103132.47;5015458;28;20257;-78
2023/01/24 07:47:32;;;;;;;10.33;9.30;;;;;;;2.38;85.08;103154.34;5009901;28;20192;-81
2023/01/24 07:49:59;;;;;;;17.77;15.37;;;;;;;2.37;85.13;103160.28;5015871;28;20230;-83
2023/01/24 07:52:25;;;;;;;11.03;10.03;;;;;;;2.45;85.26;103164.19;5018221;28;20222;-80
2023/01/24 07:54:52;;;;;;;8.77;7.17;;;;;;;2.39;85.03;103177.59;5015170;28;20214;-83
2023/01/24 07:57:19;;;;;;;11.37;10.27;;;;;;;2.45;84.74;103183.94;5015239;28;20220;-82
2023/01/24 07:59:46;;;;;;;12.73;11.53;;;;;;;2.49;85.04;103191.94;5009464;28;20248;-83
2023/01/24 08:02:12;;;;;;;12.87;10.20;;;;;;;2.49;84.45;103191.03;5008442;28;20256;-84
2023/01/24 08:04:39;;;;;;;11.87;10.63;;;;;;;2.48;84.23;103199.56;5017093;28;20230;-86
2023/01/24 08:07:18;;;;;;;8.60;7.70;;;;;;;2.54;83.94;103207.69;5039329;28;20613;-86
2023/01/24 08:09:45;;;;;;;10.50;9.47;;;;;;;2.55;83.50;103224.91;5037072;28;20745;-84
2023/01/24 08:12:11;;;;;;;9.73;8.73;;;;;;;2.53;83.85;103223.94;5038243;28;20210;-85
2023/01/24 08:14:39;;;;;;;10.10;9.13;;;;;;;2.55;84.17;103224.91;5041507;28;20269;-85
2023/01/24 08:17:06;;;;;;;9.53;8.63;;;;;;;2.54;84.57;103210.25;5041571;28;20230;-82
2023/01/24 08:19:32;;;;;;;11.18;10.13;;;;;;;2.64;84.50;103199.69;5041229;28;20483;-85
2023/01/24 08:21:59;;;;;;;8.00;7.30;;;;;;;2.73;84.30;103212.22;5041372;28;20660;-82
2023/01/24 08:24:25;;;;;;;6.40;5.87;;;;;;;2.71;83.54;103221.53;5043212;28;20206;-83
2023/01/24 08:27:30;;;;;;;8.30;7.50;;;;;;;2.67;83.90;103227.31;5039208;28;20211;-87
2023/01/24 08:29:58;;;;;;;7.40;6.80;;;;;;;2.72;83.64;103236.25;5033955;28;20266;-84
2023/01/24 08:32:24;;;;;;;8.50;7.70;;;;;;;2.72;83.60;103237.13;5040677;28;20583;-85
2023/01/24 08:34:51;;;;;;;8.50;7.63;;;;;;;2.69;83.73;103238.63;5039319;28;20257;-86
2023/01/24 08:37:18;;;;;;;7.07;6.37;;;;;;;2.66;83.94;103241.91;5040786;28;20630;-88
2023/01/24 08:39:44;;;;;;;6.80;6.20;;;;;;;2.63;83.96;103236.56;5035058;28;20229;-86
2023/01/24 08:42:11;;;;;;;6.50;5.90;;;;;;;2.71;83.15;103242.19;5035157;28;20202;-85
2023/01/24 08:44:38;;;;;;;6.97;6.40;;;;;;;2.68;82.79;103257.50;5035673;28;20206;-83
2023/01/24 08:47:05;;;;;;;7.57;6.87;;;;;;;2.65;82.98;103272.78;5031937;28;20211;-85
2023/01/24 08:49:32;;;;;;;6.63;6.03;;;;;;;2.67;82.68;103266.00;5032324;28;20253;-85
2023/01/24 08:51:59;;;;;;;6.97;6.37;;;;;;;2.69;82.58;103274.72;5035509;28;20280;-84
2023/01/24 08:54:26;;;;;;;6.47;5.97;;;;;;;2.66;82.86;103283.19;5021976;28;20219;-84
2023/01/24 08:56:52;;;;;;;6.77;6.17;;;;;;;2.68;82.37;103291.91;5004272;28;20283;-83
2023/01/24 08:59:19;;;;;;;7.20;6.60;;;;;;;2.67;82.70;103292.69;5006744;28;20249;-83
2023/01/24 09:01:45;;;;;;;6.40;5.90;;;;;;;2.67;83.12;103287.53;5005375;28;20207;-85
2023/01/24 09:04:13;;;;;;;7.40;6.80;;;;;;;2.69;83.33;103275.59;5005146;28;20207;-83
2023/01/24 09:06:40;;;;;;;6.73;6.10;;;;;;;2.70;83.12;103277.41;5007936;28;20199;-85
2023/01/24 09:09:07;;;;;;;7.03;6.43;;;;;;;2.71;82.94;103280.88;5010303;28;20226;-85
2023/01/24 09:11:33;;;;;;;6.50;6.00;;;;;;;2.66;83.16;103277.16;5007198;28;20198;-84
2023/01/24 09:13:59;;;;;;;7.20;6.60;;;;;;;2.69;83.04;103279.88;5008182;28;20237;-84
2023/01/24 09:16:27;;;;;;;7.83;7.13;;;;;;;2.70;83.35;103276.53;5004568;28;20277;-86
2023/01/24 09:18:53;;;;;;;9.13;8.33;;;;;;;2.71;83.12;103286.03;5019066;28;20222;-86
2023/01/24 09:21:21;;;;;;;8.37;7.67;;;;;;;2.73;82.95;103287.88;5010823;28;20235;-85
2023/01/24 09:23:48;;;;;;;6.90;6.40;;;;;;;2.71;82.51;103297.22;5006440;28;20372;-85
2023/01/24 09:26:14;;;;;;;7.47;6.87;;;;;;;2.72;82.63;103292.97;5009044;28;20205;-85
2023/01/24 09:28:41;;;;;;;7.27;6.67;;;;;;;2.74;82.35;103300.00;5006801;28;20277;-84
2023/01/24 09:31:08;;;;;;;7.50;6.90;;;;;;;2.73;82.46;103298.19;5003608;28;20204;-85
2023/01/24 09:33:35;;;;;;;7.77;7.07;;;;;;;2.76;82.60;103300.09;5005885;28;20250;-84
2023/01/24 09:36:03;;;;;;;8.07;7.37;;;;;;;2.81;82.69;103297.78;5002164;28;20201;-84
2023/01/24 09:38:33;;;;;;;7.80;7.10;;;;;;;2.83;82.08;103302.22;5004685;28;20572;-85
2023/01/24 09:41:10;;;;;;;8.40;7.70;;;;;;;2.80;82.12;103307.22;5008050;28;20203;-84
2023/01/24 09:43:43;;;;;;;6.00;5.50;;;;;;;2.73;82.22;103297.31;4999139;28;20600;-84
2023/01/24 09:46:19;;;;;;;7.97;6.90;;;;;;;2.81;82.47;103305.50;5021424;28;20726;-84
2023/01/24 09:48:48;;;;;;;7.50;6.80;;;;;;;2.79;82.17;103308.00;5033606;28;20229;-85
2023/01/24 09:51:20;;;;;;;5.97;5.47;;;;;;;2.82;82.53;103308.19;5033624;28;20252;-84
2023/01/24 09:53:52;;;;;;;6.83;6.13;;;;;;;2.87;82.29;103317.06;5033901;28;20668;-84
2023/01/24 09:56:26;;;;;;;5.40;5.00;;;;;;;2.83;81.77;103320.28;5032776;28;20250;-84
2023/01/24 09:59:09;;;;;;;6.27;5.83;;;;;;;2.86;81.29;103327.31;5007654;28;20266;-84
2023/01/24 10:01:38;;;;;;;5.57;5.17;;;;;;;2.83;81.61;103333.16;5002190;28;20748;-84
2023/01/24 10:04:05;;;;;;;6.50;5.37;;;;;;;2.87;82.12;103321.34;5000940;28;20209;-84
2023/01/24 10:06:32;;;;;;;5.73;5.23;;;;;;;2.95;82.63;103317.53;5003249;28;20681;-84
2023/01/24 10:09:12;;;;;;;6.10;5.60;;;;;;;3.01;82.04;103315.31;5012775;28;20257;-84
2023/01/24 10:11:49;;;;;;;6.67;6.17;;;;;;;3.02;82.07;103321.38;5007919;28;20204;-80
2023/01/24 10:14:40;;;;;;;5.73;5.23;;;;;;;3.04;81.63;103322.38;5017187;28;20754;-86
2023/01/24 10:17:30;;;;;;;5.70;5.20;;;;;;;3.03;81.64;103323.16;5019022;28;20356;-83
2023/01/24 10:20:14;;;;;;;6.10;5.60;;;;;;;2.99;81.73;103322.06;5018472;28;20632;-84
2023/01/24 10:23:00;;;;;;;6.07;5.57;;;;;;;3.05;81.56;103324.13;5023469;28;20203;-84
2023/01/24 10:25:33;;;;;;;5.97;5.47;;;;;;;3.11;81.43;103325.41;5028186;28;20213;-84
2023/01/24 10:28:02;;;;;;;5.93;5.43;;;;;;;3.16;81.52;103326.53;5029171;28;20261;-86
2023/01/24 10:30:40;;;;;;;5.00;4.60;;;;;;;3.17;81.06;103336.06;5022332;28;20267;-84
2023/01/24 10:33:16;;;;;;;5.20;4.80;;;;;;;3.20;80.29;103347.38;5033807;28;20214;-82
2023/01/24 10:35:52;;;;;;;5.37;4.97;;;;;;;3.19;80.11;103367.09;5011553;28;20223;-82
2023/01/24 10:38:19;;;;;;;4.83;4.33;;;;;;;3.19;79.47;103377.44;5011697;28;20227;-87
2023/01/24 10:40:53;;;;;;;4.60;4.27;;;;;;;3.21;79.39;103380.13;5022662;28;20215;-84
2023/01/24 10:43:23;;;;;;;4.57;4.27;;;;;;;3.10;79.91;103390.69;5016821;28;20231;-85
2023/01/24 10:46:05;;;;;;;5.70;5.30;;;;;;;3.20;80.20;103376.66;5020051;28;20924;-85
2023/01/24 10:48:40;;;;;;;5.40;5.00;;;;;;;3.28;80.34;103359.91;5026495;28;20564;-86
2023/01/24 10:51:16;;;;;;;5.20;4.70;;;;;;;3.33;79.15;103370.50;5025538;28;20249;-85
2023/01/24 10:53:43;;;;;;;5.43;5.03;;;;;;;3.32;78.91;103385.09;5024327;28;20268;-85
2023/01/24 10:56:13;;;;;;;5.90;5.50;;;;;;;3.32;78.76;103386.81;5021113;28;20465;-85
2023/01/24 10:58:43;;;;;;;4.80;4.50;;;;;;;3.35;78.56;103398.22;5016402;28;20525;-86
2023/01/24 11:01:18;;;;;;;5.53;5.13;;;;;;;3.25;79.07;103403.63;5016253;28;20211;-84
2023/01/24 11:03:46;;;;;;;4.80;4.50;;;;;;;3.24;79.43;103388.94;5017210;28;20611;-82
2023/01/24 11:06:32;;;;;;;5.30;4.90;;;;;;;3.20;79.86;103384.38;5017403;28;20206;-86
2023/01/24 11:09:04;;;;;;;5.70;5.27;;;;;;;3.28;79.16;103367.66;5017011;28;20248;-86
2023/01/24 11:11:33;;;;;;;6.28;5.85;;;;;;;3.32;78.95;103381.63;5017826;28;20443;-87
2023/01/24 11:14:01;;;;;;;6.03;5.60;;;;;;;3.29;78.58;103402.09;5019923;28;20222;-83
2023/01/24 11:16:33;;;;;;;6.03;5.53;;;;;;;3.34;78.91;103391.25;5018823;28;20234;-82
2023/01/24 11:19:02;;;;;;;5.77;5.30;;;;;;;3.31;78.60;103387.59;5014700;28;20639;-83
2023/01/24 11:21:30;;;;;;;5.70;5.30;;;;;;;3.26;78.74;103394.19;5017552;28;20203;-80
2023/01/24 11:24:02;;;;;;;5.30;4.90;;;;;;;3.22;78.85;103393.13;5015853;28;20206;-80
2023/01/24 11:26:32;;;;;;;6.67;5.40;;;;;;;3.26;78.52;103394.19;5019048;28;20210;-81
2023/01/24 11:29:01;;;;;;;6.07;5.57;;;;;;;3.28;78.73;103402.91;5020500;28;20228;-80
2023/01/24 11:31:31;;;;;;;5.87;5.47;;;;;;;3.23;79.12;103386.25;5018329;28;20674;-80
2023/01/24 11:34:30;;;;;;;5.70;5.30;;;;;;;3.18;79.51;103378.25;5026486;28;20477;-79
2023/01/24 11:37:09;;;;;;;5.50;5.10;;;;;;;3.20;79.97;103357.69;4999354;28;20200;-82
2023/01/24 11:39:44;;;;;;;5.83;5.43;;;;;;;3.18;79.87;103345.56;5004793;28;20237;-81
2023/01/24 11:42:21;;;;;;;6.13;5.63;;;;;;;3.14;80.27;103343.63;5038249;28;20228;-82
2023/01/24 11:45:08;;;;;;;7.10;5.93;;;;;;;3.16;79.67;103347.19;5036966;28;20745;-79
2023/01/24 11:47:43;;;;;;;6.07;5.57;;;;;;;3.17;79.53;103343.81;5036074;28;20207;-80
2023/01/24 11:50:26;;;;;;;6.67;6.07;;;;;;;3.13;80.14;103333.19;5035470;28;20202;-79
2023/01/24 11:53:04;;;;;;;6.37;5.87;;;;;;;3.18;79.63;103331.78;5036352;28;20209;-81
2023/01/24 11:55:40;;;;;;;5.70;5.30;;;;;;;3.18;79.18;103330.09;5029975;28;20205;-79
2023/01/24 11:58:29;;;;;;;6.03;5.53;;;;;;;3.23;78.94;103339.78;5036852;28;20230;-80
2023/01/24 12:01:05;;;;;;;6.83;6.17;;;;;;;3.20;79.83;103331.88;5036057;28;20621;-80
2023/01/24 12:04:05;;;;;;;6.47;5.97;;;;;;;3.18;79.46;103326.63;5037750;28;20206;-80
2023/01/24 12:06:43;;;;;;;6.63;6.07;;;;;;;3.13;79.48;103326.38;5031321;28;20207;-79
2023/01/24 12:09:20;;;;;;;6.80;6.30;;;;;;;3.10;79.39;103328.75;5035714;28;20293;-81
2023/01/24 12:11:53;;;;;;;5.80;5.30;;;;;;;3.11;79.61;103317.66;5035648;28;20671;-82